createdAt,value
2023-10-23T00:08:56.996Z,2.3
2023-10-23T00:24:39.478Z,2.9
2023-10-23T00:40:21.639Z,2.7
2023-10-23T00:56:03.950Z,2.8
2023-10-23T01:11:46.529Z,3.3
2023-10-23T01:27:29.301Z,2.9
2023-10-23T01:43:12.242Z,3.2
2023-10-23T01:58:54.726Z,2.7
2023-10-23T02:14:37.004Z,4.69
2023-10-23T02:46:01.855Z,3.5
2023-10-23T03:01:44.717Z,5
2023-10-23T03:17:27.066Z,6.1
2023-10-23T03:33:09.882Z,4.9
2023-10-23T03:48:52.810Z,4.19
2023-10-23T04:04:35.652Z,4.5
2023-10-23T04:20:18.478Z,4.4
2023-10-23T04:36:00.663Z,4.6
2023-10-23T04:51:43.582Z,4.69
2023-10-23T05:07:26.472Z,5.8
2023-10-23T05:23:09.366Z,7.9
2023-10-23T05:54:35.169Z,6.4
2023-10-23T06:10:18.171Z,7.9
2023-10-23T06:26:00.750Z,9.7
2023-10-23T06:41:43.443Z,14.6
2023-10-23T06:57:26.010Z,11.2
2023-10-23T07:13:08.592Z,11.3
2023-10-23T07:28:50.471Z,9.7
2023-10-23T07:44:32.838Z,9
2023-10-23T08:00:14.957Z,8.2
2023-10-23T08:15:57.280Z,7.5
2023-10-23T08:31:40.287Z,6.6
2023-10-23T08:47:23.169Z,6.8
2023-10-23T09:03:05.303Z,6.1
2023-10-23T09:18:47.656Z,6
2023-10-23T09:34:30.288Z,5.7
2023-10-23T09:35:17.583Z,5.5
2023-10-23T09:50:59.814Z,5.8
2023-10-23T10:06:42.698Z,5.9
2023-10-23T10:22:24.864Z,5.5
2023-10-23T10:53:49.154Z,4.19
2023-10-23T11:09:31.429Z,3.7
2023-10-23T11:25:13.709Z,3.3
2023-10-23T11:40:55.814Z,2.8
2023-10-23T11:56:38.588Z,2.4
2023-10-23T12:12:20.987Z,2.8
2023-10-23T12:28:03.104Z,2.09
2023-10-23T12:43:45.489Z,2.09
2023-10-23T12:59:27.595Z,2.7
2023-10-23T13:15:10.452Z,2.2
2023-10-23T13:30:52.656Z,1.7
2023-10-23T13:46:34.962Z,2.09
2023-10-23T14:02:17.798Z,3.1
2023-10-23T14:18:00.628Z,3.1
2023-10-23T14:33:43.208Z,2.7
2023-10-23T14:49:25.483Z,3.9
2023-10-23T15:05:08.144Z,4.1
2023-10-23T15:20:50.992Z,5.2
2023-10-23T15:36:33.498Z,5.4
2023-10-23T15:52:15.685Z,5.4
2023-10-23T16:07:57.968Z,5.1
2023-10-23T16:23:40.144Z,5.2
2023-10-23T16:39:22.427Z,9.3
2023-10-23T16:55:05.382Z,10.6
2023-10-23T17:10:48.212Z,10.8
2023-10-23T17:26:30.357Z,23.6
2023-10-23T17:42:13.426Z,10
2023-10-23T17:57:55.764Z,11.9
2023-10-23T18:13:37.868Z,12.9
2023-10-23T18:29:20.598Z,14.4
2023-10-23T18:45:02.914Z,19.7
2023-10-23T19:00:45.347Z,12.6
2023-10-23T19:16:27.802Z,14.2
2023-10-23T19:32:10.823Z,12.9
2023-10-23T19:47:53.185Z,12.8
2023-10-23T20:03:35.719Z,11
2023-10-23T20:19:18.312Z,22.5
2023-10-23T20:35:00.218Z,16.1
2023-10-23T20:50:43.241Z,15.3
2023-10-23T21:06:25.660Z,13.7
2023-10-23T21:22:08.472Z,16.1
2023-10-23T21:37:51.376Z,18.29
2023-10-23T21:53:33.486Z,19.1
2023-10-23T22:09:15.917Z,18.1
2023-10-23T22:24:58.215Z,19.6
2023-10-23T22:40:41.244Z,18
2023-10-23T22:56:23.525Z,16.79
2023-10-23T23:12:05.956Z,18.5
2023-10-23T23:27:48.733Z,17.1
2023-10-23T23:43:30.862Z,16.4
2023-10-23T23:59:13.125Z,16.29
